Time;durP1;ratioP1;P1;durP2;ratioP2;P2;SDS_P1;SDS_P2;PMS_P1;PMS_P2;Temp;Humidity;BMP_temperature;BMP_pressure;BME280_temperature;BME280_humidity;BME280_pressure;Samples;Min_cycle;Max_cycle;Signal;HPM_P1;HPM_P2
2021/09/22 00:00:20;;;;;;;17.63;10.68;;;384.40;2329.60;;;;;;5033799;28;20025;-79
2021/09/22 00:02:46;;;;;;;15.20;10.65;;;384.40;2329.60;;;;;;5033435;28;20030;-79
2021/09/22 00:05:13;;;;;;;15.38;10.57;;;384.40;2329.60;;;;;;5035174;28;20029;-80
2021/09/22 00:07:40;;;;;;;21.83;9.77;;;384.40;2329.60;;;;;;5034990;28;20022;-80
2021/09/22 00:10:08;;;;;;;14.00;9.88;;;384.40;2329.60;;;;;;5033918;28;20401;-76
2021/09/22 00:12:34;;;;;;;14.18;9.73;;;384.40;2329.60;;;;;;5034851;28;20017;-76
2021/09/22 00:15:00;;;;;;;16.23;10.73;;;384.40;2329.60;;;;;;5034792;28;20024;-80
2021/09/22 00:17:26;;;;;;;14.90;10.20;;;384.40;2329.60;;;;;;5035109;28;20032;-79
2021/09/22 00:19:52;;;;;;;14.45;9.73;;;384.40;2329.60;;;;;;5035231;28;20018;-79
2021/09/22 00:22:17;;;;;;;16.02;10.65;;;384.40;2329.60;;;;;;5033648;28;20116;-79
2021/09/22 00:24:43;;;;;;;15.98;10.93;;;384.40;2329.60;;;;;;5033742;28;20026;-76
2021/09/22 00:27:09;;;;;;;19.02;11.05;;;384.40;2329.60;;;;;;5033658;28;20029;-79
2021/09/22 00:29:35;;;;;;;19.05;11.02;;;384.40;2329.60;;;;;;5034821;28;20021;-76
2021/09/22 00:32:01;;;;;;;18.63;11.00;;;384.40;2329.60;;;;;;5034516;28;20409;-80
2021/09/22 00:34:26;;;;;;;16.13;10.57;;;384.40;2329.60;;;;;;5034697;28;20021;-78
2021/09/22 00:36:52;;;;;;;16.92;11.02;;;384.30;2329.60;;;;;;5034614;28;20018;-78
2021/09/22 00:39:18;;;;;;;19.50;11.38;;;384.40;2329.60;;;;;;5034317;28;20473;-80
2021/09/22 00:41:45;;;;;;;19.38;11.23;;;384.40;2329.60;;;;;;5033096;28;20084;-80
2021/09/22 00:44:11;;;;;;;16.25;11.27;;;384.30;2329.60;;;;;;5034403;28;20025;-80
2021/09/22 00:46:37;;;;;;;17.52;12.02;;;384.20;2329.60;;;;;;5033086;28;20033;-79
2021/09/22 00:49:03;;;;;;;18.63;12.07;;;384.10;2329.60;;;;;;5034537;28;20588;-80
2021/09/22 00:51:28;;;;;;;18.45;12.70;;;384.10;2329.60;;;;;;5034212;28;20100;-80
2021/09/22 00:53:54;;;;;;;19.38;11.73;;;384.10;2329.60;;;;;;5034295;28;20052;-77
2021/09/22 00:56:21;;;;;;;20.55;12.02;;;384.20;2329.60;;;;;;5033458;28;20103;-80
2021/09/22 00:58:47;;;;;;;18.38;12.50;;;384.10;2329.60;;;;;;5032964;28;20113;-80
2021/09/22 01:01:13;;;;;;;18.88;12.32;;;384.10;2329.60;;;;;;5032768;28;20120;-80
2021/09/22 01:03:39;;;;;;;17.70;12.75;;;384.10;2329.60;;;;;;5034016;28;20024;-79
2021/09/22 01:06:05;;;;;;;18.45;12.02;;;384.10;2329.60;;;;;;5032886;28;20456;-76
2021/09/22 01:08:32;;;;;;;20.60;12.40;;;384.10;2329.60;;;;;;5034148;28;20152;-80
2021/09/22 01:10:59;;;;;;;19.45;11.65;;;384.10;2329.60;;;;;;5033950;28;20057;-78
2021/09/22 01:13:25;;;;;;;17.90;12.93;;;384.10;2329.60;;;;;;5033944;28;20155;-80
2021/09/22 01:15:52;;;;;;;17.48;11.60;;;384.10;2329.60;;;;;;5032843;28;20531;-78
2021/09/22 01:18:22;;;;;;;16.88;11.50;;;384.00;2329.60;;;;;;5033870;28;20029;-76
2021/09/22 01:20:54;;;;;;;16.88;11.68;;;384.00;2329.60;;;;;;5030199;28;20120;-76
2021/09/22 01:23:22;;;;;;;19.13;12.57;;;384.00;2329.60;;;;;;5032816;28;20573;-80
2021/09/22 01:25:50;;;;;;;18.65;12.13;;;384.00;2329.60;;;;;;5033745;28;20030;-78
2021/09/22 01:28:19;;;;;;;17.10;12.05;;;384.10;2329.60;;;;;;5033549;28;20470;-78
2021/09/22 01:30:46;;;;;;;22.73;13.13;;;384.10;2329.60;;;;;;5029534;28;20090;-80
2021/09/22 01:33:13;;;;;;;19.55;11.60;;;384.00;2329.60;;;;;;5032302;28;20422;-76
2021/09/22 01:35:42;;;;;;;21.33;13.23;;;384.00;2329.60;;;;;;5033361;28;20032;-76
2021/09/22 01:38:15;;;;;;;20.20;13.15;;;384.00;2329.60;;;;;;5031456;28;20024;-77
2021/09/22 01:40:56;;;;;;;18.27;12.73;;;359.30;2329.60;;;;;;5033523;28;20393;-80
2021/09/22 01:43:23;;;;;;;18.10;11.18;;;359.30;2329.60;;;;;;5031999;28;20021;-80
2021/09/22 01:45:49;;;;;;;19.35;11.82;;;359.30;2329.60;;;;;;5033595;28;20072;-76
2021/09/22 01:48:15;;;;;;;16.63;12.02;;;359.30;2329.60;;;;;;5032209;28;20026;-80
2021/09/22 01:50:40;;;;;;;21.75;13.82;;;359.30;2329.60;;;;;;5033363;28;20147;-78
2021/09/22 01:53:06;;;;;;;18.33;11.95;;;384.00;2329.60;;;;;;5033253;28;20014;-77
2021/09/22 01:55:32;;;;;;;18.70;12.05;;;384.00;2329.60;;;;;;5033048;28;20108;-80
2021/09/22 01:58:00;;;;;;;24.73;13.30;;;384.00;2329.60;;;;;;5033197;28;20370;-80
2021/09/22 02:00:26;;;;;;;17.77;12.35;;;384.00;2329.60;;;;;;5030475;28;20049;-77
2021/09/22 02:02:51;;;;;;;18.98;12.30;;;384.00;2329.60;;;;;;5032000;28;20072;-79
2021/09/22 02:05:17;;;;;;;18.42;12.43;;;384.00;2329.60;;;;;;5032179;28;20465;-76
2021/09/22 02:07:43;;;;;;;20.45;11.55;;;384.00;2329.60;;;;;;5032425;28;20489;-77
2021/09/22 02:10:09;;;;;;;17.17;11.48;;;384.00;2329.60;;;;;;5035776;28;20113;-80
2021/09/22 02:12:35;;;;;;;17.90;11.98;;;384.00;2329.60;;;;;;5036205;28;20508;-77
2021/09/22 02:15:01;;;;;;;16.35;11.90;;;359.30;2329.60;;;;;;5037254;28;20040;-76
2021/09/22 02:17:26;;;;;;;15.88;11.82;;;359.20;2329.60;;;;;;5037103;28;20028;-76
2021/09/22 02:19:52;;;;;;;18.40;12.43;;;359.20;2329.60;;;;;;5037048;28;20017;-79
2021/09/22 02:22:18;;;;;;;21.65;13.25;;;359.30;2329.60;;;;;;5036996;28;20038;-79
2021/09/22 02:24:44;;;;;;;18.58;12.27;;;359.20;2329.60;;;;;;5036784;28;20029;-80
2021/09/22 02:27:14;;;;;;;21.02;13.23;;;359.10;2329.60;;;;;;5035842;28;20037;-76
2021/09/22 02:29:41;;;;;;;17.67;12.25;;;359.00;2329.60;;;;;;5036585;28;20021;-79
2021/09/22 02:32:08;;;;;;;21.77;12.23;;;359.10;2329.60;;;;;;5036941;28;20144;-76
2021/09/22 02:34:33;;;;;;;22.08;13.32;;;359.00;2329.60;;;;;;5037023;28;20032;-77
2021/09/22 02:36:59;;;;;;;18.65;11.73;;;359.00;2329.60;;;;;;5036715;28;20025;-76
2021/09/22 02:39:25;;;;;;;18.13;11.93;;;359.00;2329.60;;;;;;5035743;28;20473;-76
2021/09/22 02:41:51;;;;;;;19.65;12.82;;;359.00;2329.60;;;;;;5036599;28;20029;-80
2021/09/22 02:44:17;;;;;;;19.33;12.90;;;359.00;2329.60;;;;;;5035157;28;20139;-77
2021/09/22 02:46:43;;;;;;;19.63;12.40;;;359.00;2329.60;;;;;;5036613;28;20025;-76
2021/09/22 02:49:08;;;;;;;20.75;13.45;;;359.00;2329.60;;;;;;5034147;28;20037;-80
2021/09/22 02:51:34;;;;;;;20.35;13.13;;;358.90;2329.60;;;;;;5035215;28;20022;-79
2021/09/22 02:54:00;;;;;;;19.92;11.88;;;358.90;2329.60;;;;;;5034897;28;20389;-76
2021/09/22 02:56:26;;;;;;;23.10;13.25;;;358.80;2329.60;;;;;;5034777;28;20056;-76
2021/09/22 02:58:52;;;;;;;24.42;14.27;;;358.80;2329.60;;;;;;5035009;28;20029;-76
2021/09/22 03:01:18;;;;;;;22.08;13.05;;;358.90;2329.60;;;;;;5036420;28;20462;-76
2021/09/22 03:03:44;;;;;;;21.33;13.10;;;358.90;2329.60;;;;;;5035112;28;20022;-79
2021/09/22 03:06:10;;;;;;;20.98;13.65;;;358.90;2329.60;;;;;;5036265;28;20045;-80
2021/09/22 03:08:38;;;;;;;23.17;13.07;;;358.90;2329.60;;;;;;5035301;28;20048;-79
2021/09/22 03:11:08;;;;;;;19.70;12.63;;;358.80;2329.60;;;;;;5036177;28;20026;-76
2021/09/22 03:13:36;;;;;;;19.00;13.20;;;358.80;2329.60;;;;;;5034648;28;20017;-75
2021/09/22 03:16:03;;;;;;;18.25;12.27;;;358.90;2329.60;;;;;;5034825;28;20025;-80
2021/09/22 03:18:29;;;;;;;18.98;13.20;;;358.80;2329.60;;;;;;5033076;28;20025;-76
2021/09/22 03:20:55;;;;;;;18.42;13.52;;;358.70;2329.60;;;;;;5034669;28;20221;-80
2021/09/22 03:23:20;;;;;;;16.48;12.15;;;358.70;2329.60;;;;;;5034603;28;20025;-80
2021/09/22 03:25:46;;;;;;;19.15;12.80;;;358.80;2329.60;;;;;;5034405;28;20041;-76
2021/09/22 03:28:12;;;;;;;19.27;12.35;;;358.80;2329.60;;;;;;5035996;28;20021;-80
2021/09/22 03:30:39;;;;;;;17.60;11.10;;;358.80;2329.60;;;;;;5035605;28;20067;-80
2021/09/22 03:33:04;;;;;;;18.67;12.15;;;358.80;2329.60;;;;;;5035624;28;20039;-79
2021/09/22 03:35:30;;;;;;;19.40;12.25;;;358.80;2329.60;;;;;;5035772;28;20022;-76
2021/09/22 03:37:56;;;;;;;16.42;11.50;;;358.60;2329.60;;;;;;5035925;28;20112;-79
2021/09/22 03:40:22;;;;;;;18.30;12.48;;;358.60;2329.60;;;;;;5035590;28;20056;-81
2021/09/22 03:42:48;;;;;;;18.45;10.80;;;358.70;2329.60;;;;;;5035445;28;20022;-80
2021/09/22 03:45:14;;;;;;;19.77;10.80;;;358.70;2329.60;;;;;;5034474;28;20018;-80
2021/09/22 03:47:40;;;;;;;16.70;11.68;;;358.70;2329.60;;;;;;5035590;28;20432;-80
2021/09/22 03:50:07;;;;;;;15.02;11.23;;;358.80;2329.60;;;;;;5035374;28;20455;-77
2021/09/22 03:52:33;;;;;;;21.27;10.80;;;358.70;2329.60;;;;;;5035774;28;20470;-76
2021/09/22 03:54:59;;;;;;;15.85;11.18;;;358.70;2329.60;;;;;;5034206;28;20473;-76
2021/09/22 03:57:24;;;;;;;18.52;11.10;;;358.70;2329.60;;;;;;5035589;28;20076;-79
2021/09/22 03:59:50;;;;;;;15.85;11.93;;;358.60;2329.60;;;;;;5033984;28;20422;-79
2021/09/22 04:02:16;;;;;;;19.45;11.85;;;358.60;2329.60;;;;;;5035304;28;20025;-79
2021/09/22 04:04:42;;;;;;;18.02;11.43;;;358.60;2329.60;;;;;;5034307;28;20373;-79
2021/09/22 04:07:08;;;;;;;15.35;11.02;;;358.60;2329.60;;;;;;5035187;28;20021;-80
2021/09/22 04:09:34;;;;;;;15.32;10.00;;;358.60;2329.60;;;;;;5035266;28;20021;-79
2021/09/22 04:12:00;;;;;;;15.05;10.45;;;358.60;2329.60;;;;;;5034096;28;20037;-80
2021/09/22 04:14:25;;;;;;;18.52;10.60;;;358.60;2329.60;;;;;;5033766;28;20033;-76
2021/09/22 04:16:51;;;;;;;13.30;10.05;;;358.60;2329.60;;;;;;5035009;28;20051;-80
2021/09/22 04:19:17;;;;;;;16.00;10.32;;;358.70;2329.60;;;;;;5033636;28;20029;-80
2021/09/22 04:21:44;;;;;;;14.30;10.27;;;358.60;2329.60;;;;;;5035004;28;20507;-80
2021/09/22 04:24:10;;;;;;;15.32;11.20;;;358.60;2329.60;;;;;;5033948;28;20032;-79
2021/09/22 04:26:38;;;;;;;15.68;11.13;;;358.70;2329.60;;;;;;5033445;28;20091;-76
2021/09/22 04:29:04;;;;;;;14.85;10.57;;;358.60;2329.60;;;;;;5034696;28;20044;-76
2021/09/22 04:31:30;;;;;;;15.85;11.00;;;358.60;2329.60;;;;;;5032434;28;20017;-80
2021/09/22 04:33:57;;;;;;;17.60;11.70;;;358.60;2329.60;;;;;;5033722;28;20029;-77
2021/09/22 04:36:23;;;;;;;14.52;10.38;;;358.60;2329.60;;;;;;5034729;28;20072;-79
2021/09/22 04:38:49;;;;;;;14.98;10.40;;;358.60;2329.60;;;;;;5033249;28;20022;-79
2021/09/22 04:41:15;;;;;;;19.55;11.80;;;358.60;2329.60;;;;;;5034881;28;20044;-78
2021/09/22 04:43:41;;;;;;;16.52;11.77;;;358.50;2329.60;;;;;;5033372;28;20014;-77
2021/09/22 04:46:08;;;;;;;20.33;12.43;;;358.50;2329.60;;;;;;5033161;28;20174;-79
2021/09/22 04:48:34;;;;;;;17.40;11.95;;;358.50;2329.60;;;;;;5030792;28;20013;-79
2021/09/22 04:51:00;;;;;;;16.83;11.63;;;358.50;2329.60;;;;;;5034338;28;20477;-79
2021/09/22 04:53:26;;;;;;;16.77;12.40;;;358.50;2329.60;;;;;;5033230;28;20037;-77
2021/09/22 04:55:52;;;;;;;19.25;12.15;;;358.50;2329.60;;;;;;5032740;28;20040;-76
2021/09/22 04:58:17;;;;;;;17.13;11.13;;;358.50;2329.60;;;;;;5034507;28;20802;-79
2021/09/22 05:00:43;;;;;;;17.90;11.60;;;358.50;2329.60;;;;;;5032824;28;20116;-79
2021/09/22 05:03:09;;;;;;;24.10;13.25;;;358.50;2329.60;;;;;;5032928;28;20389;-79
2021/09/22 05:05:35;;;;;;;16.70;11.23;;;358.50;2329.60;;;;;;5034062;28;20017;-79
2021/09/22 05:08:00;;;;;;;29.48;12.02;;;358.50;2329.60;;;;;;5032896;28;20445;-79
2021/09/22 05:10:27;;;;;;;22.73;11.63;;;358.50;2329.60;;;;;;5034175;28;20480;-79
2021/09/22 05:12:52;;;;;;;19.80;11.38;;;358.40;2329.60;;;;;;5032803;28;20413;-78
2021/09/22 05:15:18;;;;;;;16.60;12.30;;;358.50;2329.60;;;;;;5033858;28;20072;-76
2021/09/22 05:17:44;;;;;;;15.55;11.52;;;358.50;2329.60;;;;;;5033850;28;20018;-81
2021/09/22 05:20:11;;;;;;;16.02;11.38;;;358.50;2329.60;;;;;;5033674;28;20017;-81
2021/09/22 05:22:37;;;;;;;18.73;11.05;;;358.50;2329.60;;;;;;5033658;28;20048;-78
2021/09/22 05:25:04;;;;;;;18.35;12.20;;;358.40;2329.60;;;;;;5032722;28;20048;-80
2021/09/22 05:27:30;;;;;;;15.52;11.55;;;358.40;2329.60;;;;;;5032614;28;20087;-81
2021/09/22 05:29:56;;;;;;;18.45;10.60;;;358.50;2329.60;;;;;;5032616;28;20018;-76
2021/09/22 05:32:22;;;;;;;15.25;10.93;;;358.50;2329.60;;;;;;5032226;28;20020;-77
2021/09/22 05:34:48;;;;;;;17.30;12.02;;;358.60;2329.60;;;;;;5032847;28;20028;-77
2021/09/22 05:37:13;;;;;;;20.85;11.02;;;358.50;2329.60;;;;;;5033094;28;20466;-76
2021/09/22 05:39:39;;;;;;;17.90;12.48;;;358.50;2329.60;;;;;;5032019;28;20397;-81
2021/09/22 05:42:06;;;;;;;15.82;11.30;;;358.50;2329.60;;;;;;5032127;28;20041;-78
2021/09/22 05:44:32;;;;;;;15.77;11.13;;;358.40;2329.60;;;;;;5033025;28;20029;-78
2021/09/22 05:46:58;;;;;;;18.17;11.48;;;358.60;2329.60;;;;;;5024293;28;20080;-80
2021/09/22 05:49:24;;;;;;;16.38;11.18;;;358.60;2329.60;;;;;;5031776;28;20018;-79
2021/09/22 05:51:49;;;;;;;18.92;11.82;;;358.70;2329.60;;;;;;5032889;28;20032;-78
2021/09/22 05:54:16;;;;;;;19.35;11.77;;;358.60;2329.60;;;;;;5043735;28;20370;-79
2021/09/22 05:56:42;;;;;;;16.15;11.80;;;358.70;2329.60;;;;;;5033248;28;20038;-80
2021/09/22 05:59:08;;;;;;;16.20;11.90;;;358.70;2329.60;;;;;;5031586;28;20079;-78
2021/09/22 06:01:34;;;;;;;15.98;11.82;;;358.70;2329.60;;;;;;5034165;28;20045;-77
2021/09/22 06:04:00;;;;;;;14.57;10.70;;;358.70;2329.60;;;;;;5031780;28;20033;-78
2021/09/22 06:06:28;;;;;;;15.68;11.35;;;358.80;2329.60;;;;;;5032689;28;20021;-77
2021/09/22 06:08:53;;;;;;;14.45;9.88;;;358.80;2329.60;;;;;;5031764;28;20037;-77
2021/09/22 06:11:19;;;;;;;16.77;11.25;;;358.80;2329.60;;;;;;5032681;28;20034;-78
2021/09/22 06:13:46;;;;;;;14.93;10.98;;;358.80;2329.60;;;;;;5029921;28;20055;-79
2021/09/22 06:16:12;;;;;;;14.70;10.85;;;358.80;2329.60;;;;;;5032595;28;20100;-77
2021/09/22 06:18:38;;;;;;;13.27;10.48;;;358.80;2329.60;;;;;;5031332;28;20160;-79
2021/09/22 06:21:04;;;;;;;13.43;10.25;;;358.80;2329.60;;;;;;5032253;28;20044;-78
2021/09/22 06:23:31;;;;;;;15.30;10.93;;;358.80;2329.60;;;;;;5039984;28;20108;-78
2021/09/22 06:25:56;;;;;;;16.50;10.40;;;358.90;2329.60;;;;;;5031568;28;20034;-77
2021/09/22 06:28:22;;;;;;;12.98;9.77;;;358.90;2329.60;;;;;;5031478;28;20026;-76
2021/09/22 06:30:48;;;;;;;14.77;10.20;;;358.90;2329.60;;;;;;5031285;28;20512;-78
2021/09/22 06:33:14;;;;;;;15.68;10.25;;;358.90;2329.60;;;;;;5031332;28;20021;-76
2021/09/22 06:35:39;;;;;;;13.77;9.27;;;358.80;2329.60;;;;;;5030760;28;20386;-78
2021/09/22 06:38:05;;;;;;;16.50;9.95;;;358.90;2329.60;;;;;;5031183;28;20069;-77
2021/09/22 06:40:31;;;;;;;15.82;9.50;;;358.90;2329.60;;;;;;5042738;28;20032;-76
2021/09/22 06:42:57;;;;;;;16.35;9.63;;;358.90;2329.60;;;;;;5032790;28;20022;-78
2021/09/22 06:45:23;;;;;;;17.67;10.43;;;359.00;2329.60;;;;;;5032678;28;20026;-76
2021/09/22 06:47:50;;;;;;;34.70;19.00;;;358.80;2329.60;;;;;;5031734;28;20473;-78
2021/09/22 06:50:16;;;;;;;19.10;13.25;;;359.00;2329.60;;;;;;5032732;28;20040;-76
2021/09/22 06:52:42;;;;;;;20.73;14.73;;;359.00;2329.60;;;;;;5031422;28;20033;-76
2021/09/22 06:55:09;;;;;;;49.80;26.48;;;358.90;2329.60;;;;;;5033302;28;20033;-76
2021/09/22 06:57:34;;;;;;;50.88;30.17;;;358.90;2329.60;;;;;;5035140;28;20041;-79
2021/09/22 07:00:00;;;;;;;45.00;28.52;;;359.00;2329.60;;;;;;5034721;28;20407;-77
2021/09/22 07:02:26;;;;;;;37.50;23.45;;;359.00;2329.60;;;;;;5034574;28;20048;-77
2021/09/22 07:04:52;;;;;;;29.88;19.00;;;359.00;2329.60;;;;;;5039109;28;20033;-75
2021/09/22 07:07:18;;;;;;;36.00;22.58;;;358.90;2329.60;;;;;;5035684;28;20036;-77
2021/09/22 07:09:43;;;;;;;97.25;49.83;;;359.00;2329.60;;;;;;5038006;28;20020;-75
2021/09/22 07:12:09;;;;;;;52.97;29.35;;;359.00;2329.60;;;;;;5035826;28;20098;-76
2021/09/22 07:14:35;;;;;;;26.95;16.70;;;359.00;2329.60;;;;;;5037040;28;20059;-77
2021/09/22 07:17:00;;;;;;;23.55;14.20;;;359.00;2329.60;;;;;;5036674;28;20381;-78
2021/09/22 07:19:26;;;;;;;44.13;24.88;;;359.00;2329.60;;;;;;5034759;28;20093;-76
2021/09/22 07:21:52;;;;;;;52.58;30.92;;;359.10;2329.60;;;;;;5035686;28;20034;-79
2021/09/22 07:24:18;;;;;;;31.35;18.85;;;359.10;2329.60;;;;;;5034431;28;20037;-78
2021/09/22 07:26:43;;;;;;;81.50;42.10;;;359.00;2329.60;;;;;;5038719;28;20025;-77
2021/09/22 07:29:09;;;;;;;41.67;23.75;;;359.20;2329.60;;;;;;5035166;28;20026;-79
2021/09/22 07:31:35;;;;;;;30.17;16.30;;;359.10;2329.60;;;;;;5033962;28;20032;-76
2021/09/22 07:34:02;;;;;;;36.63;21.80;;;359.20;2329.60;;;;;;5038741;28;20413;-76
2021/09/22 07:36:30;;;;;;;41.70;25.67;;;359.20;2329.60;;;;;;5035219;28;20115;-77
2021/09/22 07:38:56;;;;;;;27.05;11.82;;;359.20;2329.60;;;;;;5034200;28;20401;-77
2021/09/22 07:41:22;;;;;;;22.73;13.30;;;359.10;2329.60;;;;;;5033865;28;20061;-77
2021/09/22 07:43:47;;;;;;;13.82;9.23;;;359.20;2329.60;;;;;;5034006;28;20072;-76
2021/09/22 07:46:13;;;;;;;15.10;9.20;;;359.20;2329.60;;;;;;5033781;28;20037;-77
2021/09/22 07:48:39;;;;;;;12.55;8.50;;;359.10;2329.60;;;;;;5033688;28;20123;-76
2021/09/22 07:51:05;;;;;;;13.23;8.75;;;359.00;2329.60;;;;;;5034673;28;20029;-76
2021/09/22 07:53:30;;;;;;;15.45;9.02;;;359.00;2329.60;;;;;;5035184;28;20032;-76
2021/09/22 07:55:56;;;;;;;11.70;8.38;;;359.00;2329.60;;;;;;5032810;28;20438;-76
2021/09/22 07:58:22;;;;;;;13.35;8.30;;;359.10;2329.60;;;;;;5033170;28;20071;-76
2021/09/22 08:00:48;;;;;;;11.45;8.13;;;359.00;2329.60;;;;;;5033443;28;20110;-81
2021/09/22 08:03:15;;;;;;;16.15;8.75;;;359.10;2329.60;;;;;;5033362;28;20400;-77
2021/09/22 08:05:41;;;;;;;11.55;7.95;;;359.20;2329.60;;;;;;5033801;28;20033;-79
2021/09/22 08:08:08;;;;;;;14.38;8.50;;;359.20;2329.60;;;;;;5035392;28;20030;-77
2021/09/22 08:10:36;;;;;;;11.50;8.50;;;359.00;2329.60;;;;;;5035002;28;20021;-78
2021/09/22 08:13:02;;;;;;;15.80;9.02;;;359.10;2329.60;;;;;;5033682;28;20030;-80
2021/09/22 08:15:28;;;;;;;16.73;8.57;;;359.20;2329.60;;;;;;5034409;28;20026;-77
2021/09/22 08:17:53;;;;;;;12.43;8.80;;;359.10;2329.60;;;;;;5033562;28;20029;-77
2021/09/22 08:20:20;;;;;;;14.63;10.05;;;359.10;2329.60;;;;;;5034602;28;20021;-78
2021/09/22 08:22:46;;;;;;;13.48;8.50;;;359.20;2329.60;;;;;;5034586;28;20022;-80
2021/09/22 08:25:13;;;;;;;12.80;8.75;;;359.20;2329.60;;;;;;5031722;28;20028;-76
2021/09/22 08:27:38;;;;;;;14.07;8.98;;;359.20;2329.60;;;;;;5034267;28;20036;-76
2021/09/22 08:30:06;;;;;;;18.75;9.10;;;359.20;2329.60;;;;;;5043821;28;20021;-79
2021/09/22 08:32:31;;;;;;;12.82;8.85;;;359.20;2329.60;;;;;;5034318;28;20018;-77
2021/09/22 08:34:57;;;;;;;14.30;8.27;;;359.20;2329.60;;;;;;5033226;28;20033;-77
2021/09/22 08:37:23;;;;;;;14.43;9.10;;;359.30;2329.60;;;;;;5034079;28;20017;-78
2021/09/22 08:39:49;;;;;;;39.42;25.13;;;359.10;2329.60;;;;;;5033274;28;20492;-78
2021/09/22 08:42:15;;;;;;;35.60;21.80;;;359.20;2329.60;;;;;;5034196;28;20037;-78
2021/09/22 08:44:42;;;;;;;59.38;39.08;;;359.20;2329.60;;;;;;5033359;28;20367;-79
2021/09/22 08:47:07;;;;;;;32.72;22.45;;;359.30;2329.60;;;;;;5033747;28;20029;-81
2021/09/22 08:49:33;;;;;;;17.13;12.68;;;359.30;2329.60;;;;;;5033828;28;20075;-82
2021/09/22 08:51:59;;;;;;;20.55;14.27;;;384.00;2329.60;;;;;;5032561;28;20072;-77
2021/09/22 08:54:25;;;;;;;22.75;15.38;;;384.10;2329.60;;;;;;5032935;28;20050;-82
2021/09/22 08:56:50;;;;;;;26.52;16.63;;;384.10;2329.60;;;;;;5034222;28;20041;-78
2021/09/22 08:59:16;;;;;;;23.30;17.88;;;384.20;2329.60;;;;;;5033914;28;20545;-77
2021/09/22 09:02:05;;;;;;;13.13;9.52;;;384.30;2329.60;;;;;;5032048;28;20049;-76
2021/09/22 09:04:31;;;;;;;16.85;8.52;;;384.40;2329.60;;;;;;5040014;28;20100;-77
2021/09/22 09:06:57;;;;;;;29.55;18.88;;;384.30;2329.60;;;;;;5033432;28;20521;-78
2021/09/22 09:09:33;;;;;;;14.95;11.40;;;384.30;2329.60;;;;;;5031990;28;20032;-77
2021/09/22 09:11:58;;;;;;;14.93;9.65;;;384.30;2329.60;;;;;;5033205;28;20029;-79
2021/09/22 09:14:25;;;;;;;13.50;7.72;;;384.40;2329.60;;;;;;5033184;28;20040;-79
2021/09/22 09:16:50;;;;;;;16.95;7.90;;;384.30;2329.60;;;;;;5031924;28;20025;-78
2021/09/22 09:19:21;;;;;;;15.25;9.43;;;384.30;2329.60;;;;;;5059696;28;20113;-80
2021/09/22 09:22:04;;;;;;;13.60;9.13;;;384.30;2329.60;;;;;;5029510;28;20030;-78
2021/09/22 09:24:35;;;;;;;13.65;9.50;;;384.30;2329.60;;;;;;5029712;28;20080;-78
2021/09/22 09:27:02;;;;;;;12.90;8.25;;;384.30;2329.60;;;;;;5032071;28;20021;-77
2021/09/22 09:29:28;;;;;;;15.77;9.55;;;384.20;2329.60;;;;;;5028106;28;20079;-77
2021/09/22 09:32:20;;;;;;;14.73;8.80;;;384.30;2329.60;;;;;;5043211;28;20021;-79
2021/09/22 09:35:08;;;;;;;18.27;7.43;;;384.40;2329.60;;;;;;5032147;28;20030;-82
2021/09/22 09:37:42;;;;;;;11.73;7.82;;;384.30;2329.60;;;;;;5033457;28;20044;-79
2021/09/22 09:40:28;;;;;;;13.00;7.80;;;384.40;2329.60;;;;;;5026506;28;20033;-79
2021/09/22 09:43:06;;;;;;;12.80;7.30;;;384.30;2329.60;;;;;;5036366;28;20036;-79
2021/09/22 09:45:44;;;;;;;16.95;8.50;;;384.40;2329.60;;;;;;5041585;28;20301;-79
2021/09/22 09:48:22;;;;;;;14.70;9.00;;;384.30;2329.60;;;;;;5033433;28;20056;-80
2021/09/22 09:50:52;;;;;;;13.10;7.60;;;384.40;2329.60;;;;;;5032398;28;20025;-83
2021/09/22 09:53:30;;;;;;;13.00;8.63;;;384.30;2329.60;;;;;;5018577;28;20021;-80
2021/09/22 09:56:00;;;;;;;14.48;8.20;;;384.30;2329.60;;;;;;5032243;28;20076;-79
2021/09/22 09:58:44;;;;;;;15.00;9.02;;;384.40;2329.60;;;;;;5018493;28;20044;-81
2021/09/22 10:01:11;;;;;;;10.63;7.63;;;384.60;2329.60;;;;;;5032651;28;20036;-85
2021/09/22 10:03:37;;;;;;;13.60;8.90;;;384.60;2329.60;;;;;;5031764;28;20075;-79
2021/09/22 10:06:03;;;;;;;20.50;9.07;;;384.60;2329.60;;;;;;5032032;28;20389;-82
2021/09/22 10:08:28;;;;;;;14.40;8.57;;;384.70;2329.60;;;;;;5033084;28;20021;-83
2021/09/22 10:10:56;;;;;;;16.92;8.80;;;384.60;2329.60;;;;;;5033052;28;20359;-80
2021/09/22 10:13:23;;;;;;;12.27;8.88;;;384.60;2329.60;;;;;;5031701;28;20025;-80
2021/09/22 10:15:50;;;;;;;9.90;7.88;;;384.80;2329.60;;;;;;5032565;28;20025;-80
2021/09/22 10:18:20;;;;;;;14.88;8.57;;;384.80;2329.60;;;;;;5033060;28;20038;-81
2021/09/22 10:20:47;;;;;;;11.73;8.43;;;384.90;2329.60;;;;;;5033453;28;20061;-85
2021/09/22 10:23:15;;;;;;;11.20;8.80;;;384.90;2329.60;;;;;;5044108;28;20488;-83
2021/09/22 10:25:42;;;;;;;12.10;9.10;;;384.70;2329.60;;;;;;5033043;28;20036;-82
2021/09/22 10:28:08;;;;;;;13.80;9.80;;;384.80;2329.60;;;;;;5031757;28;20034;-80
2021/09/22 10:30:35;;;;;;;18.52;9.60;;;384.90;2329.60;;;;;;5036336;28;20124;-83
2021/09/22 10:33:01;;;;;;;15.02;9.93;;;384.90;2329.60;;;;;;5041067;28;20029;-82
2021/09/22 10:35:27;;;;;;;13.70;9.77;;;384.90;2329.60;;;;;;5038380;28;20060;-79
2021/09/22 10:37:57;;;;;;;15.57;9.40;;;384.80;2329.60;;;;;;5036636;28;20049;-79
2021/09/22 10:40:35;;;;;;;15.38;9.93;;;384.60;2329.60;;;;;;5039937;28;20060;-84
2021/09/22 10:43:21;;;;;;;21.73;10.35;;;384.80;2329.60;;;;;;5036894;28;20500;-80
2021/09/22 10:46:07;;;;;;;13.03;8.70;;;384.80;2329.60;;;;;;5035516;28;20025;-82
2021/09/22 10:48:54;;;;;;;13.57;8.95;;;384.60;2329.60;;;;;;5035556;28;20286;-85
2021/09/22 10:51:33;;;;;;;16.83;9.05;;;384.60;2329.60;;;;;;5037003;28;20033;-84
2021/09/22 10:54:22;;;;;;;14.63;9.05;;;384.60;2329.60;;;;;;5034980;28;20038;-78
2021/09/22 10:56:52;;;;;;;12.85;9.13;;;384.40;2329.60;;;;;;5034137;28;20045;-78
2021/09/22 10:59:32;;;;;;;15.95;10.27;;;384.50;2329.60;;;;;;5041827;28;20051;-80
2021/09/22 11:01:59;;;;;;;15.63;10.05;;;384.40;2329.60;;;;;;5037641;28;20039;-79
2021/09/22 11:04:26;;;;;;;12.70;9.25;;;384.60;2329.60;;;;;;5047773;28;20461;-78
2021/09/22 11:06:54;;;;;;;16.73;10.18;;;384.60;2329.60;;;;;;5042368;28;20116;-87
2021/09/22 11:09:25;;;;;;;14.05;9.77;;;384.80;2329.60;;;;;;5039154;28;20017;-84
2021/09/22 11:12:00;;;;;;;13.18;9.65;;;384.90;2329.60;;;;;;5037862;28;20017;-84
2021/09/22 11:14:31;;;;;;;15.98;11.30;;;384.90;2329.60;;;;;;5035249;28;20087;-88
2021/09/22 11:17:03;;;;;;;18.23;11.27;;;384.60;2329.60;;;;;;5035230;28;20029;-78
2021/09/22 11:19:29;;;;;;;14.63;10.27;;;384.70;2329.60;;;;;;5039507;28;20496;-79
2021/09/22 11:21:56;;;;;;;19.05;11.52;;;384.70;2329.60;;;;;;5038257;28;20034;-81
2021/09/22 11:24:27;;;;;;;20.08;11.05;;;384.70;2329.60;;;;;;5034692;28;20108;-79
2021/09/22 11:26:58;;;;;;;20.15;11.48;;;384.60;2329.60;;;;;;5034942;28;20026;-81
2021/09/22 11:29:58;;;;;;;19.13;12.00;;;384.70;2329.60;;;;;;5039124;28;20093;-84
2021/09/22 11:32:35;;;;;;;16.92;10.95;;;384.70;2329.60;;;;;;5035085;28;20021;-87
2021/09/22 11:35:11;;;;;;;19.60;10.32;;;384.70;2329.60;;;;;;5033471;28;20017;-80
2021/09/22 11:37:41;;;;;;;18.02;10.55;;;384.70;2329.60;;;;;;5033248;28;20057;-77
2021/09/22 11:40:12;;;;;;;16.50;11.27;;;384.90;2329.60;;;;;;5036330;28;20044;-79
2021/09/22 11:42:41;;;;;;;16.95;11.32;;;384.90;2329.60;;;;;;5029222;28;20033;-77
2021/09/22 11:45:08;;;;;;;16.52;10.60;;;384.90;2329.60;;;;;;5035297;28;20018;-77
2021/09/22 11:47:34;;;;;;;15.98;10.48;;;409.70;2355.20;;;;;;5034197;28;20488;-82
2021/09/22 11:50:00;;;;;;;21.58;11.13;;;409.70;2355.20;;;;;;5035269;28;20022;-80
2021/09/22 11:52:26;;;;;;;18.85;11.25;;;384.90;2329.60;;;;;;5034374;28;20117;-77
2021/09/22 11:54:57;;;;;;;15.35;11.32;;;384.90;2329.60;;;;;;5034814;28;20024;-79
2021/09/22 11:57:28;;;;;;;15.40;10.00;;;384.70;2329.60;;;;;;5034877;28;20053;-80
2021/09/22 11:59:55;;;;;;;15.05;10.85;;;384.70;2329.60;;;;;;5034429;28;20029;-79
2021/09/22 12:02:23;;;;;;;15.95;11.00;;;384.60;2329.60;;;;;;5033652;28;20084;-81